createdAt,value
2022-08-09T00:01:54.990Z,65.53
2022-08-09T00:04:34.640Z,66.05
2022-08-09T00:07:03.064Z,66.18
2022-08-09T00:09:35.386Z,66.86
2022-08-09T00:12:05.040Z,66.90
2022-08-09T00:14:38.254Z,67.45
2022-08-09T00:17:08.367Z,67.82
2022-08-09T00:19:57.905Z,68.04
2022-08-09T00:22:25.146Z,68.51
2022-08-09T00:25:08.307Z,69.14
2022-08-09T00:27:43.314Z,69.13
2022-08-09T00:30:25.661Z,69.97
2022-08-09T00:32:54.036Z,70.30
2022-08-09T00:35:24.883Z,70.91
2022-08-09T00:37:52.417Z,70.77
2022-08-09T00:40:21.153Z,71.60
2022-08-09T00:44:10.960Z,72.35
2022-08-09T00:45:36.160Z,72.51
2022-08-09T00:48:07.074Z,73.25
2022-08-09T00:50:37.908Z,73.34
2022-08-09T00:53:13.774Z,73.09
2022-08-09T00:56:05.205Z,73.45
2022-08-09T00:58:30.589Z,74.28
2022-08-09T01:01:03.255Z,74.68
2022-08-09T01:03:36.468Z,75.07
2022-08-09T01:06:35.224Z,75.59
2022-08-09T01:09:36.627Z,76.44
2022-08-09T01:12:08.494Z,76.55
2022-08-09T01:14:52.674Z,76.92
2022-08-09T01:17:24.992Z,77.74
2022-08-09T01:20:09.214Z,78.21
2022-08-09T01:22:51.967Z,78.12
2022-08-09T01:25:41.543Z,78.44
2022-08-09T01:28:09.841Z,78.44
2022-08-09T01:30:51.463Z,78.30
2022-08-09T01:33:22.548Z,73.74
2022-08-09T01:35:55.932Z,71.22
2022-08-09T01:38:30.746Z,68.83
2022-08-09T01:41:13.330Z,69.12
2022-08-09T01:43:51.257Z,68.63
2022-08-09T01:46:25.117Z,68.18
2022-08-09T01:49:09.537Z,67.91
2022-08-09T01:51:54.056Z,69.35
2022-08-09T01:54:42.077Z,68.64
2022-08-09T01:57:16.256Z,68.76
2022-08-09T01:59:51.437Z,68.00
2022-08-09T02:02:23.617Z,69.08
2022-08-09T02:05:04.682Z,68.93
2022-08-09T02:08:35.140Z,69.88
2022-08-09T02:10:32.040Z,69.34
2022-08-09T02:13:03.061Z,69.86
2022-08-09T02:15:48.778Z,70.09
2022-08-09T02:18:19.725Z,71.58
2022-08-09T02:21:05.966Z,69.29
2022-08-09T02:23:45.410Z,69.36
2022-08-09T02:26:27.303Z,70.68
2022-08-09T02:29:06.292Z,71.22
2022-08-09T02:31:43.513Z,70.95
2022-08-09T02:34:40.873Z,71.34
2022-08-09T02:37:13.382Z,70.54
2022-08-09T02:39:49.808Z,70.54
2022-08-09T02:42:31.661Z,70.02
2022-08-09T02:45:08.247Z,71.29
2022-08-09T02:47:57.624Z,71.52
2022-08-09T02:50:33.231Z,70.80
2022-08-09T02:53:03.697Z,70.92
2022-08-09T02:55:57.508Z,70.88
2022-08-09T02:58:35.413Z,72.47
2022-08-09T03:01:07.739Z,72.05
2022-08-09T03:04:12.988Z,72.14
2022-08-09T03:06:27.284Z,72.01
2022-08-09T03:08:55.589Z,72.68
2022-08-09T03:11:29.825Z,72.39
2022-08-09T03:14:18.731Z,72.51
2022-08-09T03:16:50.191Z,72.18
2022-08-09T03:19:57.933Z,71.04
2022-08-09T03:22:12.446Z,73.19
2022-08-09T03:25:06.628Z,73.78
2022-08-09T03:27:44.857Z,73.73
2022-08-09T03:30:13.620Z,74.04
2022-08-09T03:32:43.017Z,74.59
2022-08-09T03:35:24.790Z,72.92
2022-08-09T03:38:03.156Z,73.69
2022-08-09T03:40:30.866Z,74.26
2022-08-09T03:43:01.798Z,73.51
2022-08-09T03:46:04.403Z,73.42
2022-08-09T03:48:33.330Z,73.38
2022-08-09T03:51:05.414Z,73.15
2022-08-09T03:53:56.198Z,73.62
2022-08-09T03:56:27.469Z,72.81
2022-08-09T03:58:55.542Z,74.25
2022-08-09T04:01:24.998Z,73.89
2022-08-09T04:04:01.028Z,74.17
2022-08-09T04:06:30.168Z,74.92
2022-08-09T04:09:04.792Z,74.26
2022-08-09T04:12:03.923Z,74.95
2022-08-09T04:15:00.393Z,73.93
2022-08-09T04:17:34.363Z,74.16
2022-08-09T04:20:02.547Z,73.61
2022-08-09T04:22:31.737Z,73.35
2022-08-09T04:25:03.015Z,73.71
2022-08-09T04:27:31.187Z,73.93
2022-08-09T04:30:03.016Z,73.21
2022-08-09T04:32:37.011Z,73.12
2022-08-09T04:35:08.553Z,72.85
2022-08-09T04:37:45.659Z,71.29
2022-08-09T04:40:19.252Z,72.00
2022-08-09T04:42:59.072Z,72.08
2022-08-09T04:45:30.404Z,72.36
2022-08-09T04:48:00.913Z,72.76
2022-08-09T04:50:33.604Z,72.62
2022-08-09T04:53:05.391Z,71.88
2022-08-09T04:55:57.398Z,71.35
2022-08-09T04:58:33.852Z,72.41
2022-08-09T05:01:02.343Z,71.99
2022-08-09T05:03:42.706Z,72.54
2022-08-09T05:06:22.031Z,74.15
2022-08-09T05:09:00.191Z,74.51
2022-08-09T05:11:36.044Z,73.09
2022-08-09T05:14:06.213Z,73.04
2022-08-09T05:16:59.086Z,73.27
2022-08-09T05:19:31.693Z,72.97
2022-08-09T05:22:36.085Z,72.27
2022-08-09T05:25:07.086Z,71.13
2022-08-09T05:27:46.416Z,71.38
2022-08-09T05:30:19.434Z,71.81
2022-08-09T05:32:59.362Z,71.51
2022-08-09T05:35:29.963Z,71.30
2022-08-09T05:38:04.841Z,72.34
2022-08-09T05:40:36.167Z,71.73
2022-08-09T05:43:04.918Z,71.99
2022-08-09T05:45:52.471Z,71.11
2022-08-09T05:48:33.439Z,71.07
2022-08-09T05:51:41.721Z,70.60
2022-08-09T05:53:57.324Z,70.01
2022-08-09T05:56:28.051Z,69.00
2022-08-09T05:58:58.785Z,68.46
2022-08-09T06:01:42.745Z,67.97
2022-08-09T06:04:10.140Z,68.02
2022-08-09T06:06:49.848Z,66.47
2022-08-09T06:09:40.815Z,65.58
2022-08-09T06:12:16.272Z,64.13
2022-08-09T06:14:47.708Z,63.95
2022-08-09T06:17:19.383Z,62.71
2022-08-09T06:19:46.705Z,63.27
2022-08-09T06:22:30.887Z,62.48
2022-08-09T06:25:02.545Z,61.99
2022-08-09T06:27:42.151Z,61.07
2022-08-09T06:30:16.259Z,60.39
2022-08-09T06:33:00.516Z,59.36
2022-08-09T06:35:56.118Z,58.26
2022-08-09T06:38:37.208Z,56.36
2022-08-09T06:41:19.126Z,55.58
2022-08-09T06:43:48.314Z,56.08
2022-08-09T06:46:40.247Z,54.63
2022-08-09T06:49:16.163Z,54.27
2022-08-09T06:51:52.946Z,53.37
2022-08-09T06:54:20.383Z,53.65
2022-08-09T06:56:50.512Z,53.45
2022-08-09T07:00:51.954Z,53.30
2022-08-09T07:02:05.811Z,52.36
2022-08-09T07:04:33.600Z,51.72
2022-08-09T07:07:04.919Z,50.04
2022-08-09T07:09:55.405Z,50.41
2022-08-09T07:12:38.408Z,51.44
2022-08-09T07:16:35.204Z,51.92
2022-08-09T07:18:01.940Z,51.48
2022-08-09T07:20:29.837Z,51.89
2022-08-09T07:22:59.246Z,50.76
2022-08-09T07:25:27.144Z,50.22
2022-08-09T07:27:56.559Z,50.77
2022-08-09T07:30:24.370Z,50.19
2022-08-09T07:32:52.616Z,49.78
2022-08-09T07:35:19.983Z,49.67
2022-08-09T07:37:49.977Z,49.80
2022-08-09T07:40:20.362Z,47.67
2022-08-09T07:42:54.617Z,46.56
2022-08-09T07:45:23.763Z,47.21
2022-08-09T07:48:25.582Z,45.86
2022-08-09T07:51:09.601Z,46.74
2022-08-09T07:54:04.194Z,46.64
2022-08-09T07:56:34.151Z,44.22
2022-08-09T07:59:01.457Z,44.25
2022-08-09T08:01:32.843Z,45.81
2022-08-09T08:04:02.438Z,45.32
2022-08-09T08:06:31.676Z,44.82
2022-08-09T08:09:05.336Z,44.36
2022-08-09T08:12:24.268Z,44.35
2022-08-09T08:14:33.562Z,44.58
2022-08-09T08:17:05.308Z,44.79
2022-08-09T08:19:35.250Z,44.59
2022-08-09T08:22:03.361Z,44.10
2022-08-09T08:24:40.279Z,43.84
2022-08-09T08:27:16.911Z,45.47
2022-08-09T08:29:50.201Z,44.71
2022-08-09T08:32:29.158Z,45.34
2022-08-09T08:35:00.207Z,44.85
2022-08-09T08:37:41.619Z,44.70
2022-08-09T08:40:15.204Z,44.48
2022-08-09T08:42:47.402Z,44.34
2022-08-09T08:45:16.610Z,43.88
2022-08-09T08:47:45.194Z,44.59
2022-08-09T08:50:18.752Z,44.17
2022-08-09T08:52:58.149Z,44.50
2022-08-09T08:55:27.822Z,44.19
2022-08-09T08:57:56.144Z,44.19
2022-08-09T09:00:27.798Z,44.13
2022-08-09T09:03:02.805Z,43.88
2022-08-09T09:05:59.563Z,43.54
2022-08-09T09:08:30.179Z,44.23
2022-08-09T09:11:03.543Z,43.96
2022-08-09T09:13:54.881Z,43.13
2022-08-09T09:16:30.692Z,42.84
2022-08-09T09:19:37.113Z,43.48
2022-08-09T09:21:59.617Z,42.78
2022-08-09T09:24:29.236Z,41.86
2022-08-09T09:27:01.271Z,42.56
2022-08-09T09:29:51.604Z,42.42
2022-08-09T09:32:34.436Z,41.77
2022-08-09T09:35:10.126Z,41.67
2022-08-09T09:37:40.666Z,43.26
2022-08-09T09:40:09.304Z,43.62
2022-08-09T09:42:36.899Z,42.53
2022-08-09T09:45:06.517Z,42.56
2022-08-09T09:47:40.810Z,43.23
2022-08-09T09:50:17.400Z,43.49
2022-08-09T09:52:56.969Z,43.42
2022-08-09T09:55:32.059Z,43.16
2022-08-09T09:58:15.748Z,42.65
2022-08-09T10:00:44.411Z,43.20
2022-08-09T10:03:42.856Z,43.02
2022-08-09T10:06:12.438Z,43.97
2022-08-09T10:08:55.096Z,43.65
2022-08-09T10:11:59.892Z,44.52
2022-08-09T10:14:31.813Z,44.84
2022-08-09T10:17:38.893Z,45.60
2022-08-09T10:19:59.205Z,45.85
2022-08-09T10:22:34.561Z,45.54
2022-08-09T10:25:12.256Z,45.07
2022-08-09T10:27:57.291Z,43.92
2022-08-09T10:32:07.139Z,44.01
2022-08-09T10:33:29.714Z,43.94
2022-08-09T10:36:05.317Z,43.24
2022-08-09T10:38:56.123Z,42.33
2022-08-09T10:41:25.399Z,42.94
2022-08-09T10:44:00.877Z,43.26
2022-08-09T10:46:54.187Z,42.36
2022-08-09T10:49:50.746Z,42.80
2022-08-09T10:52:42.882Z,43.20
2022-08-09T10:55:25.962Z,42.66
2022-08-09T10:57:55.917Z,42.79
2022-08-09T11:03:02.463Z,42.41
2022-08-09T11:03:50.709Z,42.05
2022-08-09T11:06:23.014Z,42.55
2022-08-09T11:08:53.198Z,41.22
2022-08-09T11:11:22.251Z,41.00
2022-08-09T11:14:08.281Z,41.43
2022-08-09T11:16:37.629Z,41.11
2022-08-09T11:19:10.374Z,40.68
2022-08-09T11:21:55.229Z,40.91
2022-08-09T11:24:50.574Z,40.28
2022-08-09T11:28:05.637Z,40.70
2022-08-09T11:30:32.903Z,40.14
2022-08-09T11:33:19.246Z,40.15
2022-08-09T11:35:50.203Z,40.44
2022-08-09T11:38:22.308Z,40.03
2022-08-09T11:40:56.307Z,40.60
2022-08-09T11:43:26.279Z,40.62
2022-08-09T11:46:00.980Z,39.60
2022-08-09T11:48:31.792Z,40.50
2022-08-09T11:53:03.269Z,40.21
2022-08-09T11:54:01.767Z,40.62
2022-08-09T11:56:42.300Z,39.70
2022-08-09T11:59:24.888Z,38.51
2022-08-09T12:02:17.615Z,37.23
2022-08-09T12:04:45.817Z,37.35
2022-08-09T12:07:14.304Z,37.55
2022-08-09T12:09:50.648Z,36.76
2022-08-09T12:12:29.155Z,37.77
2022-08-09T12:15:08.494Z,38.22
2022-08-09T12:17:43.419Z,38.66
2022-08-09T12:20:16.677Z,38.91
2022-08-09T12:22:56.145Z,39.43
2022-08-09T12:25:36.765Z,40.42
2022-08-09T12:28:58.428Z,40.49
2022-08-09T12:31:58.167Z,39.92
2022-08-09T12:34:10.209Z,38.94
2022-08-09T12:36:59.130Z,39.47
2022-08-09T12:39:41.425Z,39.46
2022-08-09T12:42:09.298Z,39.32
2022-08-09T12:44:40.338Z,38.99
2022-08-09T12:47:17.103Z,38.92
2022-08-09T12:49:51.115Z,39.56
2022-08-09T12:52:20.524Z,39.19
2022-08-09T12:56:11.525Z,40.87
2022-08-09T12:58:23.893Z,41.75
2022-08-09T13:00:51.886Z,41.99
2022-08-09T13:03:28.348Z,42.47
2022-08-09T13:06:23.907Z,41.39
2022-08-09T13:08:58.213Z,41.11
2022-08-09T13:11:29.982Z,41.69
2022-08-09T13:14:36.804Z,40.45
2022-08-09T13:16:45.959Z,41.07
2022-08-09T13:20:08.865Z,38.92
2022-08-09T13:22:35.529Z,39.14
2022-08-09T13:25:13.916Z,37.88
2022-08-09T13:27:48.723Z,37.68
2022-08-09T13:30:50.194Z,37.38
2022-08-09T13:33:52.399Z,37.17
2022-08-09T13:36:39.268Z,36.63
2022-08-09T13:41:54.352Z,36.63
2022-08-09T13:42:04.281Z,36.19
2022-08-09T13:44:32.444Z,36.78
2022-08-09T13:47:30.806Z,35.52
2022-08-09T13:49:57.170Z,35.92
2022-08-09T13:52:31.168Z,35.31
2022-08-09T13:55:05.024Z,35.62
2022-08-09T13:57:40.586Z,34.87
2022-08-09T14:00:08.336Z,34.50
2022-08-09T14:02:42.167Z,34.03
2022-08-09T14:05:58.863Z,34.68
2022-08-09T14:08:28.953Z,34.43
2022-08-09T14:11:02.282Z,34.66
2022-08-09T14:14:22.539Z,34.69
2022-08-09T14:16:29.108Z,34.50
2022-08-09T14:19:00.463Z,34.04
2022-08-09T14:21:29.594Z,34.14
2022-08-09T14:24:10.070Z,35.25
2022-08-09T14:26:37.930Z,34.94
2022-08-09T14:29:07.972Z,35.05
2022-08-09T14:31:56.501Z,35.51
2022-08-09T14:34:32.138Z,35.25
2022-08-09T14:37:06.658Z,35.38
2022-08-09T14:39:45.303Z,35.22
2022-08-09T14:42:31.410Z,34.75
2022-08-09T14:46:40.464Z,34.49
2022-08-09T14:48:00.245Z,34.89
2022-08-09T14:50:31.008Z,35.45
2022-08-09T14:53:11.011Z,34.61
2022-08-09T14:55:47.814Z,34.52
2022-08-09T14:58:21.394Z,35.58
2022-08-09T15:00:54.314Z,34.27
2022-08-09T15:03:25.667Z,35.14
2022-08-09T15:05:55.559Z,35.10
2022-08-09T15:08:30.334Z,34.35
2022-08-09T15:11:00.936Z,34.82
2022-08-09T15:13:55.973Z,34.05
2022-08-09T15:16:22.799Z,34.41
2022-08-09T15:18:59.579Z,34.62
2022-08-09T15:21:57.166Z,34.49
2022-08-09T15:24:17.483Z,34.50
2022-08-09T15:26:46.746Z,33.74
2022-08-09T15:30:59.435Z,34.25
2022-08-09T15:32:01.799Z,34.76
2022-08-09T15:34:34.499Z,34.60
2022-08-09T15:37:04.053Z,34.55
2022-08-09T15:39:43.865Z,34.38
2022-08-09T15:42:22.412Z,33.79
2022-08-09T15:44:50.532Z,34.35
2022-08-09T15:47:22.265Z,33.53
2022-08-09T15:50:03.768Z,34.45
2022-08-09T15:52:36.071Z,34.50
2022-08-09T15:55:06.658Z,34.56
2022-08-09T15:57:43.924Z,34.79
2022-08-09T16:00:14.094Z,35.17
2022-08-09T16:02:43.144Z,35.43
2022-08-09T16:05:24.614Z,36.40
2022-08-09T16:07:51.988Z,37.48
2022-08-09T16:10:56.234Z,37.58
2022-08-09T16:13:18.926Z,37.13
2022-08-09T16:16:11.517Z,43.84
2022-08-09T16:18:45.577Z,55.82
2022-08-09T16:21:17.533Z,64.21
2022-08-09T16:23:55.752Z,71.21
2022-08-09T16:26:34.745Z,68.56
2022-08-09T16:29:10.999Z,69.56
2022-08-09T16:32:20.020Z,69.62
2022-08-09T16:34:29.094Z,73.36
2022-08-09T16:36:56.806Z,71.64
2022-08-09T16:39:25.977Z,74.96
2022-08-09T16:42:02.562Z,74.52
2022-08-09T16:44:32.146Z,74.41
2022-08-09T16:47:04.186Z,78.45
2022-08-09T16:50:31.208Z,82.98
2022-08-09T16:52:35.008Z,76.60
2022-08-09T16:55:02.810Z,75.87
2022-08-09T16:57:40.492Z,74.15
2022-08-09T17:00:17.416Z,73.19
2022-08-09T17:02:46.198Z,74.76
2022-08-09T17:05:13.746Z,75.83
2022-08-09T17:08:45.942Z,77.48
2022-08-09T17:10:32.700Z,78.39
2022-08-09T17:13:13.730Z,76.90
2022-08-09T17:16:00.290Z,80.70
2022-08-09T17:18:35.570Z,86.19
2022-08-09T17:21:02.869Z,87.00
2022-08-09T17:23:37.170Z,86.72
2022-08-09T17:26:17.685Z,88.29
2022-08-09T17:28:59.132Z,87.65
2022-08-09T17:31:29.768Z,87.21
2022-08-09T17:33:57.609Z,83.40
2022-08-09T17:36:26.634Z,83.77
2022-08-09T17:38:58.777Z,85.86
2022-08-09T17:41:38.428Z,84.22
2022-08-09T17:44:38.642Z,86.35
2022-08-09T17:46:55.759Z,85.07
2022-08-09T17:49:24.922Z,84.19
2022-08-09T17:51:55.270Z,86.35
2022-08-09T17:54:25.126Z,86.50
2022-08-09T17:56:55.410Z,86.17
2022-08-09T17:59:22.640Z,85.09
2022-08-09T18:02:07.964Z,89.25
2022-08-09T18:04:37.703Z,89.23
2022-08-09T18:07:23.665Z,89.02
2022-08-09T18:10:04.630Z,85.53
2022-08-09T18:12:40.417Z,87.29
2022-08-09T18:15:19.835Z,87.43
2022-08-09T18:18:02.861Z,86.72
2022-08-09T18:20:57.266Z,86.12
2022-08-09T18:24:09.515Z,85.61
2022-08-09T18:26:06.099Z,86.44
2022-08-09T18:30:39.092Z,86.27
2022-08-09T18:31:24.964Z,89.49
2022-08-09T18:34:03.130Z,85.55
2022-08-09T18:36:32.583Z,85.49
2022-08-09T18:39:03.282Z,84.14
2022-08-09T18:41:34.514Z,84.16
2022-08-09T18:44:12.421Z,83.81
2022-08-09T18:46:48.487Z,82.21
2022-08-09T18:49:19.316Z,83.62
2022-08-09T18:51:54.938Z,83.75
2022-08-09T18:54:30.384Z,83.32
2022-08-09T18:57:05.752Z,83.99
2022-08-09T18:59:51.419Z,84.04
2022-08-09T19:02:20.042Z,81.45
2022-08-09T19:05:04.372Z,79.80
2022-08-09T19:07:34.971Z,80.61
2022-08-09T19:10:15.448Z,82.16
2022-08-09T19:12:51.386Z,80.44
2022-08-09T19:15:38.177Z,80.50
2022-08-09T19:18:05.800Z,81.44
2022-08-09T19:20:56.918Z,81.76
2022-08-09T19:24:33.311Z,85.47
2022-08-09T19:26:13.704Z,85.69
2022-08-09T19:28:48.613Z,87.04
2022-08-09T19:31:16.992Z,90.31
2022-08-09T19:33:44.836Z,90.24
2022-08-09T19:36:13.666Z,91.05
2022-08-09T19:38:41.472Z,88.54
2022-08-09T19:41:32.645Z,90.15
2022-08-09T19:44:03.313Z,88.25
2022-08-09T19:46:35.785Z,88.34
2022-08-09T19:50:07.566Z,87.91
2022-08-09T19:52:06.105Z,91.20
2022-08-09T19:54:39.222Z,90.61
2022-08-09T19:57:08.452Z,88.27
2022-08-09T19:59:57.725Z,88.81
2022-08-09T20:04:09.976Z,91.89
2022-08-09T20:05:25.072Z,89.09
2022-08-09T20:07:59.355Z,89.49
2022-08-09T20:10:34.959Z,91.03
2022-08-09T20:13:09.417Z,91.28
2022-08-09T20:16:34.153Z,90.52
2022-08-09T20:18:28.119Z,88.28
2022-08-09T20:20:56.507Z,88.02
2022-08-09T20:23:38.821Z,88.64
2022-08-09T20:26:08.461Z,90.35
2022-08-09T20:28:47.627Z,85.46
2022-08-09T20:31:16.501Z,82.37
2022-08-09T20:33:44.744Z,83.06
2022-08-09T20:36:12.925Z,83.40
2022-08-09T20:41:32.102Z,86.46
2022-08-09T20:44:03.333Z,83.16
2022-08-09T20:46:33.896Z,74.33
2022-08-09T20:49:15.760Z,77.98
2022-08-09T20:51:50.530Z,81.76
2022-08-09T20:54:21.421Z,81.60
2022-08-09T20:56:54.671Z,82.41
2022-08-09T21:00:19.882Z,78.50
2022-08-09T21:02:18.407Z,77.11
2022-08-09T21:05:53.796Z,77.86
2022-08-09T21:07:38.743Z,77.68
2022-08-09T21:10:14.257Z,77.62
2022-08-09T21:15:34.312Z,77.61
2022-08-09T21:18:22.258Z,76.42
2022-08-09T21:20:54.630Z,76.00
2022-08-09T21:23:36.009Z,76.02
2022-08-09T21:26:15.568Z,77.50
2022-08-09T21:28:55.747Z,76.13
2022-08-09T21:31:48.163Z,77.57
2022-08-09T21:34:28.888Z,78.22
2022-08-09T21:36:57.118Z,76.99
2022-08-09T21:39:28.139Z,76.37
2022-08-09T21:42:10.918Z,76.84
2022-08-09T21:44:39.308Z,79.07
2022-08-09T21:47:09.416Z,78.85
2022-08-09T21:49:39.571Z,78.58
2022-08-09T21:52:15.115Z,81.53
2022-08-09T21:55:03.427Z,78.38
2022-08-09T21:57:37.721Z,78.79
2022-08-09T22:00:40.131Z,78.32
2022-08-09T22:03:12.551Z,80.21
2022-08-09T22:05:52.999Z,79.44
2022-08-09T22:08:24.723Z,76.80
2022-08-09T22:11:49.387Z,75.10
2022-08-09T22:13:43.601Z,72.31
2022-08-09T22:16:11.166Z,70.84
2022-08-09T22:18:53.614Z,71.67
2022-08-09T22:21:45.065Z,72.29
2022-08-09T22:24:16.665Z,72.00
2022-08-09T22:26:47.818Z,71.61
2022-08-09T22:29:28.816Z,73.15
2022-08-09T22:32:29.208Z,72.17
2022-08-09T22:35:05.941Z,73.35
2022-08-09T22:37:40.448Z,74.82
2022-08-09T22:40:20.175Z,72.92
2022-08-09T22:42:47.709Z,72.80
2022-08-09T22:48:11.846Z,74.33
2022-08-09T22:48:29.697Z,74.37
2022-08-09T22:50:53.596Z,76.28
2022-08-09T22:53:21.020Z,75.12
2022-08-09T22:56:29.897Z,72.66
2022-08-09T22:58:37.482Z,75.07
2022-08-09T23:01:05.884Z,72.76
2022-08-09T23:04:03.743Z,74.90
2022-08-09T23:06:29.957Z,74.19
2022-08-09T23:09:02.718Z,73.79
2022-08-09T23:11:30.831Z,72.54
2022-08-09T23:13:58.086Z,74.63
2022-08-09T23:16:25.347Z,73.79
2022-08-09T23:18:52.838Z,75.29
2022-08-09T23:21:24.473Z,75.59
2022-08-09T23:24:05.337Z,76.75
2022-08-09T23:26:33.315Z,77.44
2022-08-09T23:29:04.417Z,77.33
2022-08-09T23:31:31.942Z,76.53
2022-08-09T23:33:59.385Z,75.47
2022-08-09T23:36:28.282Z,77.62
2022-08-09T23:39:02.269Z,77.38
2022-08-09T23:41:31.867Z,77.61
2022-08-09T23:44:02.379Z,77.86
2022-08-09T23:46:30.307Z,78.39
2022-08-09T23:49:00.974Z,77.78
2022-08-09T23:51:31.172Z,77.64
2022-08-09T23:54:02.541Z,77.56
2022-08-09T23:56:52.480Z,75.60
2022-08-09T23:59:21.649Z,75.62
